createdAt,value
2018-06-21T00:00:17.164Z,9.13
2018-06-21T00:02:47.971Z,9.90
2018-06-21T00:05:18.786Z,10.03
2018-06-21T00:07:49.648Z,10.82
2018-06-21T00:10:20.519Z,10.20
2018-06-21T00:12:51.391Z,10.23
2018-06-21T00:15:22.242Z,9.98
2018-06-21T00:17:53.125Z,10.48
2018-06-21T00:20:23.941Z,10.85
2018-06-21T00:22:54.706Z,10.82
2018-06-21T00:25:25.619Z,10.68
2018-06-21T00:27:56.417Z,10.45
2018-06-21T00:30:27.273Z,10.25
2018-06-21T00:32:58.062Z,11.22
2018-06-21T00:35:29.008Z,11.12
2018-06-21T00:37:59.848Z,12.93
2018-06-21T00:40:30.735Z,11.57
2018-06-21T00:43:01.527Z,11.78
2018-06-21T00:45:32.392Z,12.03
2018-06-21T00:48:03.182Z,12.55
2018-06-21T00:50:34.526Z,11.88
2018-06-21T00:53:05.735Z,11.73
2018-06-21T00:55:52.980Z,12.28
2018-06-21T00:58:24.586Z,13.88
2018-06-21T01:00:55.378Z,15.25
2018-06-21T01:03:26.134Z,15.70
2018-06-21T01:05:56.948Z,14.25
2018-06-21T01:08:28.079Z,16.93
2018-06-21T01:10:59.022Z,14.30
2018-06-21T01:13:30.087Z,14.58
2018-06-21T01:16:00.898Z,14.35
2018-06-21T01:18:31.954Z,15.53
2018-06-21T01:21:03.271Z,13.90
2018-06-21T01:23:34.047Z,13.22
2018-06-21T01:26:04.937Z,12.78
2018-06-21T01:28:35.786Z,12.45
2018-06-21T01:31:06.774Z,12.10
2018-06-21T01:33:37.911Z,12.73
2018-06-21T01:36:08.814Z,12.70
2018-06-21T01:38:39.833Z,11.60
2018-06-21T01:41:10.702Z,12.75
2018-06-21T01:43:41.567Z,12.28
2018-06-21T01:46:13.053Z,12.98
2018-06-21T01:48:43.946Z,11.38
2018-06-21T01:51:15.118Z,11.80
2018-06-21T01:53:45.876Z,13.05
2018-06-21T01:56:16.688Z,13.28
2018-06-21T01:58:47.543Z,12.82
2018-06-21T02:01:18.601Z,13.13
2018-06-21T02:03:49.417Z,11.65
2018-06-21T02:06:20.335Z,13.00
2018-06-21T02:08:51.142Z,13.47
2018-06-21T02:11:22.013Z,16.32
2018-06-21T02:13:53.045Z,17.40
2018-06-21T02:16:24.559Z,14.40
2018-06-21T02:18:56.175Z,13.95
2018-06-21T02:21:27.561Z,13.75
2018-06-21T02:23:59.027Z,13.28
2018-06-21T02:26:30.576Z,13.88
2018-06-21T02:29:01.974Z,14.28
2018-06-21T02:31:33.453Z,13.88
2018-06-21T02:34:04.251Z,13.10
2018-06-21T02:36:35.170Z,14.03
2018-06-21T02:39:08.535Z,14.10
2018-06-21T02:41:39.318Z,14.20
2018-06-21T02:44:10.137Z,13.57
2018-06-21T02:46:41.631Z,14.80
2018-06-21T02:49:12.986Z,16.00
2018-06-21T02:51:44.335Z,15.90
2018-06-21T02:54:15.670Z,16.07
2018-06-21T02:56:47.120Z,14.40
2018-06-21T02:59:18.496Z,13.28
2018-06-21T03:01:49.634Z,14.17
2018-06-21T03:04:20.460Z,14.27
2018-06-21T03:06:51.290Z,15.32
2018-06-21T03:09:22.027Z,15.20
2018-06-21T03:11:53.571Z,15.70
2018-06-21T03:14:24.364Z,15.07
2018-06-21T03:16:55.167Z,21.00
2018-06-21T03:19:26.003Z,15.10
2018-06-21T03:21:56.373Z,16.17
2018-06-21T03:24:27.099Z,14.97
2018-06-21T03:26:57.865Z,14.53
2018-06-21T03:29:28.658Z,15.03
2018-06-21T03:31:59.500Z,14.97
2018-06-21T03:34:30.276Z,31.03
2018-06-21T03:37:01.015Z,24.25
2018-06-21T03:39:31.772Z,24.37
2018-06-21T03:42:03.110Z,17.52
2018-06-21T03:44:33.919Z,17.80
2018-06-21T03:47:04.828Z,14.97
2018-06-21T03:49:35.665Z,14.95
2018-06-21T03:52:06.640Z,15.03
2018-06-21T03:54:37.963Z,15.08
2018-06-21T03:57:08.755Z,14.70
2018-06-21T03:59:39.518Z,15.25
2018-06-21T04:02:10.285Z,14.03
2018-06-21T04:04:41.068Z,17.05
2018-06-21T04:07:11.896Z,17.30
2018-06-21T04:09:43.045Z,18.52
2018-06-21T04:12:13.922Z,16.97
2018-06-21T04:14:44.690Z,22.40
2018-06-21T04:17:15.540Z,23.60
2018-06-21T04:19:46.287Z,17.42
2018-06-21T04:22:17.100Z,15.48
2018-06-21T04:24:47.904Z,17.52
2018-06-21T04:27:18.705Z,16.17
2018-06-21T04:29:49.464Z,17.57
2018-06-21T04:32:20.324Z,17.37
2018-06-21T04:34:51.198Z,16.73
2018-06-21T04:37:22.213Z,21.70
2018-06-21T04:39:53.085Z,16.55
2018-06-21T04:42:24.025Z,17.60
2018-06-21T04:44:54.840Z,18.12
2018-06-21T04:55:05.418Z,17.73
2018-06-21T04:57:36.222Z,20.70
2018-06-21T05:00:07.581Z,20.97
2018-06-21T05:02:38.374Z,25.27
2018-06-21T05:05:09.212Z,22.50
2018-06-21T05:07:40.882Z,23.10
2018-06-21T05:10:11.833Z,21.35
2018-06-21T05:12:42.681Z,20.77
2018-06-21T05:15:13.463Z,18.62
2018-06-21T05:17:44.225Z,23.25
2018-06-21T05:20:15.563Z,31.17
2018-06-21T05:22:46.888Z,38.88
2018-06-21T05:25:17.681Z,95.60
2018-06-21T05:27:48.493Z,38.75
2018-06-21T05:30:19.352Z,26.12
2018-06-21T05:32:50.156Z,22.75
2018-06-21T05:35:20.548Z,23.70
2018-06-21T05:37:51.225Z,20.25
2018-06-21T05:40:35.711Z,23.47
2018-06-21T05:43:06.632Z,22.37
2018-06-21T05:45:37.477Z,18.87
2018-06-21T05:48:08.412Z,20.12
2018-06-21T05:50:39.317Z,18.67
2018-06-21T05:53:10.176Z,26.60
2018-06-21T05:55:41.096Z,18.70
2018-06-21T05:58:11.975Z,22.00
2018-06-21T06:00:42.765Z,20.37
2018-06-21T06:03:13.656Z,17.52
2018-06-21T06:05:44.482Z,17.65
2018-06-21T06:08:15.344Z,17.98
2018-06-21T06:10:46.218Z,16.65
2018-06-21T06:13:18.085Z,17.00
2018-06-21T06:15:48.855Z,17.85
2018-06-21T06:18:19.632Z,16.45
2018-06-21T06:20:50.476Z,17.15
2018-06-21T06:23:21.319Z,17.00
2018-06-21T06:25:52.094Z,17.25
2018-06-21T06:28:22.990Z,15.13
2018-06-21T06:30:53.794Z,15.98
2018-06-21T06:33:24.660Z,16.20
2018-06-21T06:35:56.694Z,15.05
2018-06-21T06:38:27.474Z,14.68
2018-06-21T06:40:59.127Z,15.70
2018-06-21T06:43:29.965Z,16.07
2018-06-21T06:46:01.465Z,15.45
2018-06-21T06:48:32.264Z,15.32
2018-06-21T06:51:04.012Z,16.30
2018-06-21T06:53:34.944Z,15.25
2018-06-21T06:56:05.807Z,16.80
2018-06-21T06:58:36.588Z,16.90
2018-06-21T07:01:07.445Z,16.32
2018-06-21T07:03:38.237Z,20.17
2018-06-21T07:06:09.450Z,23.30
2018-06-21T07:08:40.224Z,20.88
2018-06-21T07:11:11.104Z,19.17
2018-06-21T07:13:41.971Z,18.10
2018-06-21T07:16:12.755Z,19.67
2018-06-21T07:18:43.092Z,18.02
2018-06-21T07:21:13.820Z,15.28
2018-06-21T07:23:44.615Z,23.80
2018-06-21T07:26:15.635Z,21.17
2018-06-21T07:28:46.504Z,20.48
2018-06-21T07:31:17.372Z,14.95
2018-06-21T07:33:48.187Z,15.45
2018-06-21T07:36:18.987Z,13.95
2018-06-21T07:38:49.811Z,13.83
2018-06-21T07:41:21.099Z,12.13
2018-06-21T07:43:51.853Z,13.70
2018-06-21T07:46:22.620Z,16.07
2018-06-21T07:48:53.457Z,16.02
2018-06-21T07:51:24.248Z,15.55
2018-06-21T07:53:55.060Z,10.50
2018-06-21T07:56:25.928Z,9.80
2018-06-21T07:58:56.305Z,8.88
2018-06-21T08:01:27.667Z,11.33
2018-06-21T08:03:58.541Z,9.55
2018-06-21T08:06:29.364Z,8.33
2018-06-21T08:09:00.437Z,8.30
2018-06-21T08:11:31.311Z,7.62
2018-06-21T08:14:02.143Z,8.20
2018-06-21T08:16:32.968Z,8.43
2018-06-21T08:19:03.782Z,7.62
2018-06-21T08:21:34.631Z,7.20
2018-06-21T08:24:06.100Z,8.30
2018-06-21T08:26:37.610Z,6.58
2018-06-21T08:29:08.768Z,7.42
2018-06-21T08:31:40.754Z,6.60
2018-06-21T08:34:12.193Z,6.85
2018-06-21T08:36:43.302Z,8.35
2018-06-21T08:39:14.440Z,7.05
2018-06-21T08:41:45.813Z,6.67
2018-06-21T08:44:17.419Z,6.55
2018-06-21T08:46:48.837Z,7.30
2018-06-21T08:49:20.205Z,6.90
2018-06-21T08:51:51.652Z,6.37
2018-06-21T08:54:23.079Z,6.50
2018-06-21T08:56:54.657Z,6.75
2018-06-21T08:59:26.031Z,5.72
2018-06-21T09:01:57.900Z,5.75
2018-06-21T09:04:29.147Z,11.20
2018-06-21T09:07:00.927Z,10.45
2018-06-21T09:09:32.360Z,5.15
2018-06-21T09:12:03.729Z,5.05
2018-06-21T09:14:35.387Z,5.12
2018-06-21T09:17:07.040Z,6.40
2018-06-21T09:19:38.405Z,6.35
2018-06-21T09:22:10.163Z,6.70
2018-06-21T09:24:41.546Z,6.42
2018-06-21T09:27:12.919Z,7.67
2018-06-21T09:29:44.839Z,8.35
2018-06-21T09:32:16.207Z,8.25
2018-06-21T09:34:47.408Z,6.28
2018-06-21T09:37:22.715Z,6.45
2018-06-21T09:39:59.704Z,7.20
2018-06-21T09:42:35.872Z,6.95
2018-06-21T09:45:07.257Z,7.92
2018-06-21T09:47:43.620Z,8.03
2018-06-21T09:50:17.329Z,6.90
2018-06-21T09:52:49.176Z,11.35
2018-06-21T09:55:20.747Z,7.17
2018-06-21T09:57:52.120Z,6.47
2018-06-21T10:00:28.358Z,6.33
2018-06-21T10:02:59.889Z,6.97
2018-06-21T10:05:31.478Z,6.55
2018-06-21T10:08:02.630Z,5.47
2018-06-21T10:10:33.724Z,6.42
2018-06-21T10:13:04.995Z,6.28
2018-06-21T10:15:36.163Z,7.33
2018-06-21T10:18:20.789Z,6.00
2018-06-21T10:20:51.961Z,5.92
2018-06-21T10:23:23.224Z,5.83
2018-06-21T10:25:54.551Z,6.20
2018-06-21T10:28:25.911Z,6.47
2018-06-21T10:30:56.751Z,6.72
2018-06-21T10:33:26.988Z,5.37
2018-06-21T10:35:57.707Z,5.65
2018-06-21T10:38:28.500Z,7.87
2018-06-21T10:40:59.324Z,5.50
2018-06-21T10:43:30.123Z,5.95
2018-06-21T10:46:00.991Z,5.85
2018-06-21T10:48:32.368Z,5.90
2018-06-21T10:51:03.802Z,8.33
2018-06-21T10:53:35.024Z,5.78
2018-06-21T10:56:06.455Z,5.70
2018-06-21T10:58:37.748Z,8.63
2018-06-21T11:01:09.192Z,5.58
2018-06-21T11:03:40.714Z,5.53
2018-06-21T11:06:13.001Z,6.12
2018-06-21T11:08:45.019Z,5.65
2018-06-21T11:11:16.631Z,5.90
2018-06-21T11:13:47.928Z,6.03
2018-06-21T11:16:19.469Z,5.90
2018-06-21T11:18:50.920Z,5.30
2018-06-21T11:21:22.956Z,6.53
2018-06-21T11:23:54.007Z,8.08
2018-06-21T11:26:25.539Z,7.53
2018-06-21T11:28:57.157Z,5.70
2018-06-21T11:31:28.752Z,6.10
2018-06-21T11:34:00.406Z,5.58
2018-06-21T11:36:31.748Z,6.12
2018-06-21T11:39:03.092Z,5.20
2018-06-21T11:41:33.930Z,5.47
2018-06-21T11:44:04.811Z,5.80
2018-06-21T11:46:35.819Z,6.58
2018-06-21T11:49:07.239Z,6.42
2018-06-21T11:51:39.236Z,6.50
2018-06-21T11:54:10.016Z,5.72
2018-06-21T11:56:40.925Z,5.25
2018-06-21T11:59:11.890Z,5.37
2018-06-21T12:01:42.720Z,6.12
2018-06-21T12:04:13.492Z,6.05
2018-06-21T12:06:45.323Z,6.25
2018-06-21T12:09:16.100Z,6.08
2018-06-21T12:11:47.876Z,6.40
2018-06-21T12:14:19.923Z,6.08
2018-06-21T12:16:51.211Z,6.42
2018-06-21T12:19:23.172Z,7.20
2018-06-21T12:21:54.163Z,5.87
2018-06-21T12:24:25.016Z,6.03
2018-06-21T12:26:55.717Z,6.20
2018-06-21T12:29:26.565Z,5.92
2018-06-21T12:31:58.995Z,6.20
2018-06-21T12:34:29.780Z,6.53
2018-06-21T12:37:00.655Z,5.97
2018-06-21T12:39:31.385Z,6.42
2018-06-21T12:42:02.188Z,5.40
2018-06-21T12:44:32.995Z,5.47
2018-06-21T12:47:03.848Z,5.15
2018-06-21T12:49:35.472Z,6.22
2018-06-21T12:52:08.018Z,8.23
2018-06-21T12:54:39.576Z,9.40
2018-06-21T12:57:11.412Z,8.23
2018-06-21T12:59:43.422Z,6.35
2018-06-21T13:02:20.708Z,6.72
2018-06-21T13:04:52.823Z,6.45
2018-06-21T13:07:26.102Z,8.25
2018-06-21T13:10:14.175Z,6.10
2018-06-21T13:13:06.350Z,9.73
2018-06-21T13:15:37.636Z,5.60
2018-06-21T13:18:09.192Z,6.08
2018-06-21T13:20:40.095Z,6.58
2018-06-21T13:23:13.284Z,5.58
2018-06-21T13:25:45.841Z,5.75
2018-06-21T13:28:17.119Z,6.03
2018-06-21T13:30:49.655Z,6.20
2018-06-21T13:33:21.721Z,7.25
2018-06-21T13:35:52.597Z,6.47
2018-06-21T13:38:23.369Z,6.92
2018-06-21T13:40:54.227Z,7.17
2018-06-21T13:43:25.024Z,8.38
2018-06-21T13:45:55.800Z,8.00
2018-06-21T13:48:26.547Z,7.95
2018-06-21T13:50:57.567Z,6.22
2018-06-21T13:53:28.356Z,6.83
2018-06-21T13:55:59.134Z,6.50
2018-06-21T13:58:29.911Z,6.60
2018-06-21T14:01:00.752Z,7.22
2018-06-21T14:03:31.540Z,6.37
2018-06-21T14:06:02.345Z,6.58
2018-06-21T14:08:33.236Z,6.03
2018-06-21T14:11:03.951Z,9.23
2018-06-21T14:13:35.015Z,7.15
2018-06-21T14:16:05.981Z,7.90
2018-06-21T14:18:37.573Z,6.25
2018-06-21T14:21:08.366Z,6.90
2018-06-21T14:23:39.262Z,7.00
2018-06-21T14:26:10.128Z,6.20
2018-06-21T14:28:40.880Z,7.47
2018-06-21T14:31:11.670Z,7.17
2018-06-21T14:33:42.600Z,7.12
2018-06-21T14:36:13.594Z,7.10
2018-06-21T14:38:44.375Z,6.25
2018-06-21T14:41:15.193Z,9.88
2018-06-21T14:43:45.948Z,8.33
2018-06-21T14:46:16.834Z,7.35
2018-06-21T14:48:47.774Z,7.30
2018-06-21T14:51:18.626Z,7.85
2018-06-21T14:53:49.407Z,9.18
2018-06-21T14:56:20.235Z,8.63
2018-06-21T14:58:51.136Z,6.58
2018-06-21T15:01:21.956Z,7.37
2018-06-21T15:03:52.783Z,6.90
2018-06-21T15:06:23.876Z,8.75
2018-06-21T15:08:54.769Z,6.95
2018-06-21T15:11:25.612Z,9.68
2018-06-21T15:13:56.457Z,9.05
2018-06-21T15:16:27.315Z,6.85
2018-06-21T15:18:58.515Z,7.87
2018-06-21T15:21:29.292Z,7.30
2018-06-21T15:24:00.461Z,6.55
2018-06-21T15:26:31.632Z,7.70
2018-06-21T15:29:02.532Z,8.03
2018-06-21T15:31:33.410Z,7.87
2018-06-21T15:34:04.165Z,6.78
2018-06-21T15:36:35.048Z,8.28
2018-06-21T15:39:18.649Z,10.63
2018-06-21T15:41:49.569Z,7.10
2018-06-21T15:44:20.469Z,6.87
2018-06-21T15:46:51.276Z,8.13
2018-06-21T15:49:22.186Z,7.58
2018-06-21T15:51:53.024Z,7.15
2018-06-21T15:54:23.907Z,5.95
2018-06-21T15:56:54.699Z,7.20
2018-06-21T15:59:25.541Z,6.95
2018-06-21T16:01:56.364Z,6.80
2018-06-21T16:04:27.172Z,7.62
2018-06-21T16:06:57.998Z,8.23
2018-06-21T16:09:28.861Z,7.78
2018-06-21T16:11:59.766Z,9.48
2018-06-21T16:14:30.647Z,14.25
2018-06-21T16:17:01.905Z,8.20
2018-06-21T16:19:32.820Z,7.83
2018-06-21T16:22:03.651Z,7.33
2018-06-21T16:24:34.492Z,6.75
2018-06-21T16:27:05.449Z,6.70
2018-06-21T16:29:36.324Z,6.35
2018-06-21T16:32:07.262Z,7.22
2018-06-21T16:34:38.053Z,7.47
2018-06-21T16:37:08.840Z,10.48
2018-06-21T16:39:39.776Z,7.60
2018-06-21T16:42:10.628Z,9.08
2018-06-21T16:44:41.623Z,9.63
2018-06-21T16:47:12.576Z,7.72
2018-06-21T16:49:43.485Z,9.33
2018-06-21T16:52:14.737Z,8.40
2018-06-21T16:54:45.511Z,11.18
2018-06-21T16:57:16.383Z,11.93
2018-06-21T16:59:47.823Z,8.18
2018-06-21T17:02:18.757Z,6.85
2018-06-21T17:04:49.661Z,7.60
2018-06-21T17:07:20.426Z,9.83
2018-06-21T17:09:51.456Z,7.42
2018-06-21T17:12:22.354Z,7.85
2018-06-21T17:14:53.142Z,9.25
2018-06-21T17:17:23.571Z,8.55
2018-06-21T17:19:54.351Z,8.55
2018-06-21T17:22:25.401Z,9.45
2018-06-21T17:24:56.233Z,7.55
2018-06-21T17:27:27.164Z,8.05
2018-06-21T17:29:57.965Z,8.55
2018-06-21T17:32:28.855Z,8.43
2018-06-21T17:34:59.865Z,7.85
2018-06-21T17:37:30.669Z,8.15
2018-06-21T17:40:01.551Z,8.08
2018-06-21T17:42:32.353Z,9.90
2018-06-21T17:45:03.270Z,11.88
2018-06-21T17:47:34.283Z,9.50
2018-06-21T17:50:05.545Z,7.85
2018-06-21T17:52:36.672Z,12.88
2018-06-21T17:55:07.637Z,8.25
2018-06-21T17:57:38.535Z,8.60
2018-06-21T18:00:09.486Z,9.25
2018-06-21T18:02:40.791Z,8.05
2018-06-21T18:05:11.723Z,11.55
2018-06-21T18:07:42.653Z,17.05
2018-06-21T18:10:14.158Z,8.83
2018-06-21T18:12:45.117Z,14.30
2018-06-21T18:15:16.101Z,9.73
2018-06-21T18:17:47.021Z,14.25
2018-06-21T18:20:17.444Z,21.35
2018-06-21T18:22:48.745Z,12.20
2018-06-21T18:25:19.772Z,17.05
2018-06-21T18:27:51.983Z,7.80
2018-06-21T18:30:23.280Z,9.48
2018-06-21T18:32:54.224Z,8.68
2018-06-21T18:35:25.352Z,10.85
2018-06-21T18:37:56.157Z,7.45
2018-06-21T18:40:27.019Z,7.78
2018-06-21T18:42:57.890Z,7.00
2018-06-21T18:45:29.506Z,6.62
2018-06-21T18:48:01.736Z,7.58
2018-06-21T18:50:33.187Z,7.72
2018-06-21T18:53:04.092Z,7.65
2018-06-21T18:55:35.026Z,35.43
2018-06-21T18:58:06.061Z,15.85
2018-06-21T19:00:37.103Z,12.23
2018-06-21T19:03:07.935Z,8.98
2018-06-21T19:05:38.828Z,8.78
2018-06-21T19:09:14.651Z,23.87
2018-06-21T19:11:50.529Z,8.68
2018-06-21T19:14:21.568Z,6.85
2018-06-21T19:16:52.341Z,9.70
2018-06-21T19:19:23.390Z,12.85
2018-06-21T19:21:54.231Z,12.60
2018-06-21T19:24:25.185Z,8.73
2018-06-21T19:26:56.043Z,7.05
2018-06-21T19:29:26.924Z,7.90
2018-06-21T19:31:57.775Z,8.18
2018-06-21T19:34:28.826Z,9.50
2018-06-21T19:36:59.602Z,15.55
2018-06-21T19:39:30.456Z,8.25
2018-06-21T19:42:01.511Z,8.43
2018-06-21T19:44:32.359Z,7.80
2018-06-21T19:47:03.164Z,7.25
2018-06-21T19:49:34.018Z,7.47
2018-06-21T19:52:04.915Z,7.50
2018-06-21T19:54:36.869Z,7.42
2018-06-21T19:57:07.715Z,5.85
2018-06-21T19:59:38.487Z,6.78
2018-06-21T20:02:09.406Z,5.17
2018-06-21T20:04:40.313Z,4.90
2018-06-21T20:07:11.558Z,12.58
2018-06-21T20:09:42.437Z,26.37
2018-06-21T20:12:13.286Z,7.50
2018-06-21T20:14:43.743Z,5.85
2018-06-21T20:17:14.647Z,5.30
2018-06-21T20:19:50.640Z,4.72
2018-06-21T20:22:21.514Z,4.58
2018-06-21T20:24:52.334Z,5.75
2018-06-21T20:27:23.228Z,4.25
2018-06-21T20:29:54.108Z,5.40
2018-06-21T20:32:24.987Z,5.25
2018-06-21T20:34:55.913Z,4.47
2018-06-21T20:37:26.948Z,4.35
2018-06-21T20:39:57.795Z,6.10
2018-06-21T20:42:28.664Z,10.63
2018-06-21T20:44:59.553Z,10.38
2018-06-21T20:47:30.395Z,7.80
2018-06-21T20:50:01.231Z,8.18
2018-06-21T20:52:32.103Z,9.10
2018-06-21T20:55:03.256Z,12.70
2018-06-21T20:57:34.039Z,8.50
2018-06-21T21:00:05.803Z,6.75
2018-06-21T21:02:37.240Z,12.00
2018-06-21T21:05:17.758Z,13.32
2018-06-21T21:07:50.080Z,10.60
2018-06-21T21:10:20.949Z,12.82
2018-06-21T21:12:51.750Z,12.80
2018-06-21T21:15:22.645Z,10.35
2018-06-21T21:17:53.537Z,9.88
2018-06-21T21:20:24.272Z,15.43
2018-06-21T21:22:55.020Z,14.70
2018-06-21T21:25:25.810Z,11.55
2018-06-21T21:27:56.598Z,12.00
2018-06-21T21:30:27.487Z,17.40
2018-06-21T21:32:58.519Z,15.43
2018-06-21T21:35:29.417Z,16.42
2018-06-21T21:38:00.305Z,10.35
2018-06-21T21:40:31.169Z,10.82
2018-06-21T21:43:01.929Z,15.80
2018-06-21T21:45:32.748Z,11.27
2018-06-21T21:48:03.632Z,10.25
2018-06-21T21:50:34.513Z,15.55
2018-06-21T21:53:05.313Z,12.98
2018-06-21T21:55:36.191Z,15.80
2018-06-21T21:58:07.032Z,17.55
2018-06-21T22:00:46.448Z,21.23
2018-06-21T22:03:17.302Z,16.00
2018-06-21T22:05:47.740Z,14.00
2018-06-21T22:08:18.674Z,11.40
2018-06-21T22:10:50.600Z,13.70
2018-06-21T22:13:21.460Z,12.05
2018-06-21T22:15:52.256Z,20.48
2018-06-21T22:18:23.040Z,12.68
2018-06-21T22:20:53.369Z,16.50
2018-06-21T22:23:24.068Z,19.50
2018-06-21T22:25:54.932Z,10.98
2018-06-21T22:28:25.818Z,17.17
2018-06-21T22:30:56.660Z,19.65
2018-06-21T22:33:27.414Z,19.65
2018-06-21T22:35:58.203Z,17.62
2018-06-21T22:38:29.032Z,19.95
2018-06-21T22:40:59.826Z,15.18
2018-06-21T22:43:30.646Z,19.62
2018-06-21T22:46:01.616Z,16.00
2018-06-21T22:48:32.488Z,12.23
2018-06-21T22:51:03.661Z,13.80
2018-06-21T22:53:34.408Z,20.72
2018-06-21T22:56:05.359Z,22.62
2018-06-21T22:58:36.908Z,14.85
2018-06-21T23:01:07.763Z,17.40
2018-06-21T23:03:38.568Z,14.03
2018-06-21T23:06:09.417Z,15.15
2018-06-21T23:08:40.256Z,15.90
2018-06-21T23:11:11.108Z,17.95
2018-06-21T23:13:41.961Z,16.85
2018-06-21T23:16:12.924Z,21.25
2018-06-21T23:19:00.154Z,20.27
2018-06-21T23:21:31.705Z,17.95
2018-06-21T23:24:03.149Z,18.37
2018-06-21T23:26:33.888Z,18.50
2018-06-21T23:29:04.760Z,12.23
2018-06-21T23:31:35.564Z,20.55
2018-06-21T23:34:06.449Z,16.50
2018-06-21T23:36:38.396Z,21.02
2018-06-21T23:39:11.347Z,18.30
2018-06-21T23:41:44.559Z,10.67
2018-06-21T23:44:15.876Z,10.90
2018-06-21T23:46:47.168Z,17.27
2018-06-21T23:49:18.445Z,15.68
2018-06-21T23:51:50.084Z,13.28
2018-06-21T23:54:21.490Z,14.25
2018-06-21T23:56:52.923Z,12.77
2018-06-21T23:59:24.528Z,15.70
